Time;durP1;ratioP1;P1;durP2;ratioP2;P2;SDS_P1;SDS_P2;PMS_P1;PMS_P2;Temp;Humidity;BMP_temperature;BMP_pressure;BME280_temperature;BME280_humidity;BME280_pressure;Samples;Min_cycle;Max_cycle;Signal;HPM_P1;HPM_P2
2022/05/10 04:01:36;;;;;;;5.47;5.00;;;12.30;99.90;;;;;;5388420;23;20244;-70
2022/05/10 04:04:03;;;;;;;6.50;5.88;;;12.30;99.90;;;;;;4974794;28;20559;-68
2022/05/10 04:06:30;;;;;;;7.72;5.85;;;12.40;99.90;;;;;;4974645;28;20585;-67
2022/05/10 04:08:57;;;;;;;7.15;6.15;;;12.40;99.90;;;;;;4973993;28;20216;-70
2022/05/10 04:11:23;;;;;;;6.25;5.65;;;12.50;99.90;;;;;;4974087;28;20306;-69
2022/05/10 04:13:50;;;;;;;6.40;5.68;;;12.50;99.90;;;;;;4975076;28;20685;-69
2022/05/10 04:16:17;;;;;;;5.53;5.03;;;12.50;99.90;;;;;;4996862;23;20232;-72
2022/05/10 04:18:45;;;;;;;5.60;5.20;;;12.60;99.90;;;;;;4974523;28;20210;-72
2022/05/10 04:21:12;;;;;;;7.75;5.45;;;12.70;99.90;;;;;;4974562;28;20279;-73
2022/05/10 04:23:39;;;;;;;6.10;5.70;;;12.70;99.90;;;;;;4974317;28;20212;-73
2022/05/10 04:26:08;;;;;;;5.83;5.33;;;12.80;99.90;;;;;;4974379;28;20495;-73
2022/05/10 04:28:36;;;;;;;6.25;5.28;;;12.80;99.90;;;;;;4974713;28;20467;-72
2022/05/10 04:31:03;;;;;;;5.87;5.47;;;12.90;99.90;;;;;;4974309;28;20277;-73
2022/05/10 04:33:30;;;;;;;6.50;5.90;;;13.00;99.90;;;;;;4974403;28;20468;-72
2022/05/10 04:35:58;;;;;;;6.37;5.80;;;13.00;99.90;;;;;;4974516;28;20520;-73
2022/05/10 04:38:25;;;;;;;5.30;4.90;;;13.10;99.90;;;;;;4973959;28;20514;-73
2022/05/10 04:43:37;;;;;;;6.93;5.07;;;13.30;99.90;;;;;;4974438;28;20507;-72
2022/05/10 04:46:04;;;;;;;5.60;5.20;;;13.40;99.90;;;;;;4974338;28;20996;-72
2022/05/10 04:48:30;;;;;;;6.90;5.87;;;13.40;99.90;;;;;;4974087;28;20467;-73
2022/05/10 04:50:59;;;;;;;7.27;5.37;;;13.50;99.90;;;;;;4973841;28;20464;-73
2022/05/10 04:53:26;;;;;;;5.77;5.27;;;13.50;99.90;;;;;;4973825;28;20467;-72
2022/05/10 04:55:53;;;;;;;8.87;6.20;;;13.50;99.90;;;;;;4973763;28;20976;-73
2022/05/10 04:58:20;;;;;;;5.70;5.23;;;13.50;99.90;;;;;;4974004;28;20460;-72
2022/05/10 05:00:47;;;;;;;6.20;5.90;;;13.60;99.90;;;;;;4974258;28;20538;-73
2022/05/10 05:03:14;;;;;;;5.07;4.77;;;13.60;99.90;;;;;;4974242;28;20550;-72
2022/05/10 05:05:40;;;;;;;7.77;5.57;;;13.80;99.90;;;;;;4973938;28;20538;-72
2022/05/10 05:08:08;;;;;;;5.60;5.17;;;13.90;99.90;;;;;;4977694;28;20972;-73
2022/05/10 05:10:35;;;;;;;11.27;5.27;;;14.10;99.90;;;;;;4974100;28;20518;-71
2022/05/10 05:13:02;;;;;;;5.60;5.10;;;14.10;99.90;;;;;;4973965;28;20464;-72
2022/05/10 05:15:29;;;;;;;6.07;5.23;;;14.10;99.90;;;;;;4973645;28;20502;-71
2022/05/10 05:17:55;;;;;;;5.67;5.20;;;14.10;99.90;;;;;;4973606;28;20464;-72
2022/05/10 05:20:22;;;;;;;7.20;5.30;;;14.10;99.90;;;;;;4973746;28;20496;-72
2022/05/10 05:22:48;;;;;;;6.43;5.33;;;14.10;99.90;;;;;;4973603;28;20523;-71
2022/05/10 05:25:17;;;;;;;4.90;4.57;;;14.10;99.90;;;;;;4973625;28;20558;-71
2022/05/10 05:27:43;;;;;;;7.83;4.73;;;14.20;99.90;;;;;;4973537;28;20468;-72
2022/05/10 05:30:12;;;;;;;5.90;5.50;;;14.30;99.90;;;;;;4973661;28;20470;-73
2022/05/10 05:32:40;;;;;;;9.87;5.43;;;14.40;99.90;;;;;;4973421;28;20541;-73
2022/05/10 05:35:07;;;;;;;6.97;5.33;;;14.60;99.90;;;;;;4973532;28;20531;-72
2022/05/10 05:37:34;;;;;;;5.10;4.80;;;14.70;99.90;;;;;;4972917;28;20460;-73
2022/05/10 05:40:02;;;;;;;5.87;5.43;;;14.80;99.90;;;;;;4973652;28;20523;-72
2022/05/10 05:42:30;;;;;;;5.43;4.90;;;14.90;99.90;;;;;;4973550;28;20546;-72
2022/05/10 05:44:58;;;;;;;6.03;5.43;;;15.00;99.90;;;;;;4973347;28;20892;-71
2022/05/10 05:47:24;;;;;;;8.40;5.33;;;15.10;99.90;;;;;;4973500;28;20550;-71
2022/05/10 05:49:51;;;;;;;4.53;4.20;;;15.10;99.90;;;;;;4973630;28;20463;-72
2022/05/10 05:52:20;;;;;;;5.53;5.13;;;15.30;99.90;;;;;;4973584;28;20464;-72
2022/05/10 05:54:47;;;;;;;5.47;5.07;;;15.40;99.90;;;;;;4973056;28;21084;-71
2022/05/10 05:57:13;;;;;;;5.10;4.70;;;15.50;99.90;;;;;;4973173;28;20522;-71
2022/05/10 05:59:41;;;;;;;5.57;4.37;;;15.60;99.90;;;;;;4973480;28;20464;-72
2022/05/10 06:02:11;;;;;;;4.80;4.50;;;15.70;99.90;;;;;;4973376;28;20472;-72
2022/05/10 06:04:38;;;;;;;8.80;4.87;;;16.00;99.90;;;;;;4973678;28;20968;-72
2022/05/10 06:07:04;;;;;;;4.93;4.47;;;16.00;99.90;;;;;;4973541;28;20468;-72
2022/05/10 06:09:31;;;;;;;5.60;4.70;;;16.10;99.90;;;;;;4973336;28;20606;-72
2022/05/10 06:11:58;;;;;;;5.30;4.80;;;16.20;99.90;;;;;;4973095;28;20468;-72
2022/05/10 06:14:24;;;;;;;4.87;4.43;;;16.20;99.90;;;;;;4972853;28;20472;-72
2022/05/10 06:16:56;;;;;;;5.23;4.70;;;16.30;99.90;;;;;;4967927;28;20519;-74
2022/05/10 06:19:23;;;;;;;4.63;4.40;;;16.30;99.90;;;;;;4970909;28;20819;-72
2022/05/10 06:21:50;;;;;;;4.70;4.33;;;16.50;99.90;;;;;;4972789;28;20492;-73
2022/05/10 06:24:17;;;;;;;6.43;5.10;;;16.90;99.90;;;;;;4972431;28;20779;-72
2022/05/10 06:26:44;;;;;;;5.37;4.97;;;17.30;99.90;;;;;;4972876;28;20522;-72
2022/05/10 06:29:11;;;;;;;4.70;4.30;;;17.80;99.90;;;;;;4972848;28;20472;-71
2022/05/10 06:31:40;;;;;;;4.70;4.40;;;18.50;99.90;;;;;;4972856;28;20471;-74
2022/05/10 06:34:09;;;;;;;4.43;3.63;;;19.00;99.90;;;;;;4973375;28;20463;-73
2022/05/10 06:36:36;;;;;;;4.73;4.30;;;19.50;99.90;;;;;;4972955;28;20475;-73
2022/05/10 06:39:03;;;;;;;3.70;3.60;;;19.90;99.90;;;;;;4972872;28;20464;-73
2022/05/10 06:41:31;;;;;;;4.63;4.33;;;20.40;99.90;;;;;;4972095;28;20491;-72
2022/05/10 06:43:58;;;;;;;4.20;3.90;;;20.90;99.90;;;;;;4972603;28;20808;-73
2022/05/10 06:46:24;;;;;;;4.40;4.10;;;21.10;99.90;;;;;;4972483;28;20554;-73
2022/05/10 06:48:52;;;;;;;4.17;3.90;;;21.60;99.90;;;;;;4971330;28;20474;-73
2022/05/10 06:51:22;;;;;;;4.43;4.23;;;22.00;99.90;;;;;;4971619;28;20474;-72
2022/05/10 06:53:49;;;;;;;3.90;3.80;;;22.20;99.90;;;;;;4968313;28;20498;-73
2022/05/10 06:56:16;;;;;;;3.33;3.20;;;22.10;99.90;;;;;;4953433;28;20482;-72
2022/05/10 06:58:43;;;;;;;3.63;3.47;;;22.10;99.90;;;;;;4972046;28;20481;-72
2022/05/10 07:01:11;;;;;;;4.27;3.70;;;22.00;99.90;;;;;;4971456;28;20544;-72
2022/05/10 07:03:40;;;;;;;5.27;3.33;;;22.10;99.90;;;;;;4972373;28;20477;-72
2022/05/10 07:06:10;;;;;;;4.10;3.80;;;22.50;99.90;;;;;;4972374;28;20498;-72
2022/05/10 07:08:38;;;;;;;4.23;3.93;;;22.60;99.90;;;;;;4971383;28;20473;-72
2022/05/10 07:11:05;;;;;;;4.00;3.70;;;22.80;99.90;;;;;;4972542;28;20471;-73
2022/05/10 07:13:33;;;;;;;4.03;3.80;;;22.90;99.90;;;;;;4972597;28;20478;-74
2022/05/10 07:16:00;;;;;;;4.03;3.73;;;22.90;99.90;;;;;;4972730;28;20922;-73
2022/05/10 07:18:27;;;;;;;5.97;4.43;;;23.00;99.90;;;;;;4971992;28;20467;-74
2022/05/10 07:20:53;;;;;;;3.60;3.40;;;23.40;99.90;;;;;;4971626;28;20482;-73
2022/05/10 07:23:21;;;;;;;4.23;3.67;;;23.70;99.90;;;;;;4971684;28;20611;-74
2022/05/10 07:25:49;;;;;;;3.60;3.50;;;23.50;99.90;;;;;;4972129;28;20891;-73
2022/05/10 07:28:16;;;;;;;3.90;3.70;;;23.30;99.80;;;;;;4971901;28;20485;-74
2022/05/10 07:30:44;;;;;;;4.50;3.70;;;23.10;99.90;;;;;;4971797;28;20472;-74
2022/05/10 07:33:11;;;;;;;3.57;3.37;;;23.10;99.90;;;;;;4971717;28;20465;-73
2022/05/10 07:38:25;;;;;;;4.07;3.37;;;23.50;99.90;;;;;;4946678;28;20465;-73
2022/05/10 07:40:52;;;;;;;3.83;3.50;;;23.90;99.30;;;;;;4971951;28;20490;-73
2022/05/10 07:43:20;;;;;;;3.70;3.50;;;24.10;98.60;;;;;;4971837;28;20803;-71
2022/05/10 07:45:51;;;;;;;4.10;3.90;;;24.30;98.10;;;;;;4967830;28;20507;-71
2022/05/10 07:48:18;;;;;;;5.60;3.83;;;24.60;98.00;;;;;;4953592;29;20475;-71
2022/05/10 07:50:45;;;;;;;3.57;3.37;;;24.50;97.60;;;;;;4953509;29;20521;-71
2022/05/10 07:53:12;;;;;;;3.70;3.50;;;24.30;97.60;;;;;;4952742;29;20572;-72
2022/05/10 07:55:39;;;;;;;6.13;3.87;;;24.00;98.00;;;;;;4952252;29;20725;-71
2022/05/10 07:58:08;;;;;;;4.10;3.90;;;23.80;98.20;;;;;;4952417;29;20469;-71
2022/05/10 08:00:37;;;;;;;4.33;3.90;;;23.60;98.20;;;;;;4954271;28;20929;-71
2022/05/10 08:03:09;;;;;;;5.00;3.67;;;23.20;98.70;;;;;;4955784;29;21057;-71
2022/05/10 08:05:36;;;;;;;4.53;4.13;;;23.20;99.50;;;;;;4955814;29;20520;-71
2022/05/10 08:08:03;;;;;;;4.60;4.23;;;23.20;99.80;;;;;;4955598;29;20817;-71
2022/05/10 08:10:30;;;;;;;5.30;4.77;;;23.20;99.30;;;;;;4955956;29;20499;-71
2022/05/10 08:12:57;;;;;;;4.80;4.30;;;23.20;98.60;;;;;;4956031;29;20464;-71
2022/05/10 08:15:25;;;;;;;4.30;4.10;;;23.20;98.60;;;;;;4955763;29;20496;-72
2022/05/10 08:17:52;;;;;;;5.10;4.60;;;23.20;98.90;;;;;;4968733;28;20852;-72
2022/05/10 08:20:19;;;;;;;7.10;4.67;;;23.20;98.70;;;;;;4975021;28;20861;-70
2022/05/10 08:22:46;;;;;;;5.00;4.60;;;23.40;98.90;;;;;;4974796;28;20467;-72
2022/05/10 08:25:14;;;;;;;4.67;4.47;;;23.50;98.60;;;;;;4975063;28;20483;-71
2022/05/10 08:27:41;;;;;;;4.57;3.63;;;23.40;97.80;;;;;;4974782;28;20530;-72
2022/05/10 08:30:09;;;;;;;4.87;4.57;;;23.30;98.30;;;;;;4974861;28;20932;-71
2022/05/10 08:32:37;;;;;;;5.13;4.63;;;23.50;99.10;;;;;;4974693;28;20518;-71
2022/05/10 08:35:04;;;;;;;4.97;4.63;;;23.60;98.20;;;;;;4974662;28;20515;-72
2022/05/10 08:37:31;;;;;;;5.50;5.07;;;23.80;98.40;;;;;;4974409;28;20464;-72
2022/05/10 08:39:59;;;;;;;5.40;5.00;;;23.90;98.10;;;;;;4974050;28;20468;-71
2022/05/10 08:42:30;;;;;;;5.40;4.90;;;24.00;97.90;;;;;;4974686;28;20558;-73
2022/05/10 08:45:00;;;;;;;5.67;5.13;;;24.00;97.50;;;;;;4974470;28;20575;-72
2022/05/10 08:47:28;;;;;;;4.70;4.30;;;24.00;98.00;;;;;;4974214;28;20949;-72
2022/05/10 08:50:00;;;;;;;5.37;4.50;;;24.10;98.50;;;;;;4979829;28;20980;-72
2022/05/10 08:52:31;;;;;;;5.10;4.70;;;24.40;98.00;;;;;;4982024;28;20484;-73
2022/05/10 08:54:58;;;;;;;4.60;4.40;;;24.50;97.80;;;;;;4981934;28;20575;-71
2022/05/10 08:57:46;;;;;;;5.20;4.90;;;24.40;97.20;;;;;;4968277;28;20457;-73
2022/05/10 09:00:18;;;;;;;5.60;4.47;;;24.40;97.60;;;;;;4954711;29;20559;-71
2022/05/10 09:02:49;;;;;;;5.20;4.90;;;24.50;97.60;;;;;;4954727;29;20468;-72
2022/05/10 09:05:22;;;;;;;5.10;4.77;;;24.60;97.70;;;;;;4955066;29;21031;-71
2022/05/10 09:07:58;;;;;;;5.43;5.00;;;24.70;97.40;;;;;;4954608;29;20586;-72
2022/05/10 09:10:30;;;;;;;5.07;4.80;;;24.60;97.00;;;;;;4954233;28;20531;-72
2022/05/10 09:13:02;;;;;;;6.27;5.60;;;24.60;97.00;;;;;;4954200;29;20469;-72
2022/05/10 09:15:34;;;;;;;4.93;4.83;;;24.70;97.20;;;;;;4954324;29;20566;-71
2022/05/10 09:18:07;;;;;;;5.10;4.70;;;24.70;96.90;;;;;;4955046;29;20494;-71
2022/05/10 09:20:41;;;;;;;5.80;5.50;;;24.90;97.10;;;;;;4954388;29;20826;-71
2022/05/10 09:23:16;;;;;;;5.50;4.70;;;25.00;96.90;;;;;;4954051;29;20460;-71
2022/05/10 09:25:45;;;;;;;4.63;4.43;;;25.30;96.60;;;;;;4954398;29;20544;-71
2022/05/10 09:28:17;;;;;;;4.43;4.33;;;25.40;96.20;;;;;;4954104;29;20912;-73
2022/05/10 09:34:45;;;;;;;5.53;5.10;;;25.30;95.50;;;;;;4953927;29;20469;-72
2022/05/10 09:36:25;;;;;;;16.67;5.40;;;24.90;94.90;;;;;;4954014;29;20495;-71
2022/05/10 09:38:58;;;;;;;5.37;4.87;;;24.70;94.60;;;;;;4954021;29;20827;-71
2022/05/10 09:41:30;;;;;;;5.43;4.93;;;24.60;95.10;;;;;;4953889;29;20464;-71
2022/05/10 09:43:57;;;;;;;5.40;5.10;;;24.60;95.20;;;;;;4954481;29;20475;-71
2022/05/10 09:46:27;;;;;;;5.03;4.57;;;24.60;94.50;;;;;;4962253;28;20488;-72
2022/05/10 09:48:54;;;;;;;5.50;5.00;;;24.60;94.80;;;;;;4954304;29;20449;-72
2022/05/10 09:51:36;;;;;;;7.23;4.70;;;24.70;95.30;;;;;;4954095;29;20496;-71
2022/05/10 09:54:04;;;;;;;5.07;4.90;;;24.80;95.00;;;;;;4954686;29;20455;-71
2022/05/10 09:56:36;;;;;;;4.80;4.50;;;24.90;94.90;;;;;;4954276;29;20485;-71
2022/05/10 09:59:05;;;;;;;8.53;4.90;;;24.80;94.20;;;;;;4954250;29;20464;-70
2022/05/10 10:01:39;;;;;;;8.67;5.33;;;24.70;94.40;;;;;;4953947;29;20464;-71
2022/05/10 10:04:20;;;;;;;4.97;4.67;;;24.80;94.50;;;;;;4953702;29;20468;-70
2022/05/10 10:07:07;;;;;;;5.13;4.93;;;24.90;94.10;;;;;;4953846;29;20475;-70
2022/05/10 10:09:36;;;;;;;5.10;4.90;;;24.90;93.90;;;;;;4955050;29;20452;-71
2022/05/10 10:12:04;;;;;;;5.70;5.10;;;25.00;94.00;;;;;;4956568;29;20496;-72
2022/05/10 10:14:38;;;;;;;4.90;4.60;;;24.90;94.00;;;;;;4969445;23;20460;-67
2022/05/10 10:17:06;;;;;;;5.43;5.07;;;25.00;93.80;;;;;;4968682;28;20482;-67
2022/05/10 10:19:40;;;;;;;5.63;5.30;;;25.10;94.10;;;;;;4971814;28;20463;-67
2022/05/10 10:22:13;;;;;;;5.20;4.80;;;25.20;94.00;;;;;;4971826;28;20649;-66
2022/05/10 10:24:47;;;;;;;5.17;4.87;;;25.30;93.90;;;;;;4972197;28;20492;-66
2022/05/10 10:27:19;;;;;;;5.50;5.20;;;25.30;94.20;;;;;;4972352;28;20947;-66
2022/05/10 10:29:48;;;;;;;5.17;4.90;;;25.40;93.80;;;;;;4971783;28;20526;-67
2022/05/10 10:32:21;;;;;;;5.10;4.90;;;25.40;93.70;;;;;;4972275;28;20503;-67
2022/05/10 10:34:52;;;;;;;5.53;5.23;;;25.40;93.00;;;;;;4971948;28;20495;-67
2022/05/10 10:37:24;;;;;;;4.60;4.30;;;25.40;93.10;;;;;;4972006;28;20467;-68
2022/05/10 10:39:56;;;;;;;5.03;4.73;;;25.30;92.70;;;;;;4971528;28;20534;-68
2022/05/10 10:42:30;;;;;;;5.20;4.90;;;25.30;92.70;;;;;;4972277;28;20464;-67
2022/05/10 10:45:00;;;;;;;5.27;4.93;;;25.40;92.60;;;;;;4971963;28;20858;-67
2022/05/10 10:47:35;;;;;;;5.70;5.20;;;25.50;91.70;;;;;;4972153;28;20506;-66
2022/05/10 10:50:14;;;;;;;6.73;5.10;;;25.50;91.70;;;;;;4971666;28;20816;-67
2022/05/10 10:52:42;;;;;;;5.20;4.53;;;25.50;91.30;;;;;;4970951;28;20542;-67
2022/05/10 10:55:09;;;;;;;6.53;5.20;;;25.40;91.10;;;;;;4971781;28;20487;-67
2022/05/10 10:57:49;;;;;;;5.33;4.90;;;25.30;91.10;;;;;;4971659;28;20923;-67
2022/05/10 11:00:18;;;;;;;5.47;4.70;;;25.30;91.60;;;;;;4971736;28;20474;-67
2022/05/10 11:03:00;;;;;;;4.63;4.53;;;25.30;92.10;;;;;;4972232;28;20835;-67
2022/05/10 11:05:53;;;;;;;5.40;5.10;;;25.30;91.80;;;;;;4970152;28;20492;-67
2022/05/10 11:08:34;;;;;;;4.67;4.50;;;25.50;92.30;;;;;;4971176;28;20899;-67
2022/05/10 11:11:10;;;;;;;4.77;4.30;;;25.70;91.70;;;;;;4971315;28;20556;-67
2022/05/10 11:13:42;;;;;;;4.07;3.77;;;26.00;91.00;;;;;;4971981;28;20538;-67
2022/05/10 11:16:21;;;;;;;4.47;4.17;;;26.10;89.60;;;;;;4971477;28;20542;-67
2022/05/10 11:19:02;;;;;;;4.90;4.50;;;26.20;89.80;;;;;;4971857;28;20478;-67
2022/05/10 11:21:38;;;;;;;7.00;5.00;;;26.10;88.60;;;;;;4971529;28;20463;-67
2022/05/10 11:24:14;;;;;;;4.97;4.73;;;25.90;90.00;;;;;;4971322;28;20601;-67
2022/05/10 11:26:54;;;;;;;4.87;4.67;;;26.00;89.80;;;;;;4972151;28;20464;-67
2022/05/10 11:29:36;;;;;;;5.30;5.00;;;25.90;89.90;;;;;;4971657;28;20470;-67
2022/05/10 11:32:16;;;;;;;4.80;4.70;;;25.90;90.20;;;;;;4971600;28;20483;-67
2022/05/10 11:35:06;;;;;;;4.87;4.67;;;25.90;90.10;;;;;;4972655;28;20479;-67
2022/05/10 11:37:37;;;;;;;6.20;5.60;;;25.80;90.00;;;;;;4974644;28;20823;-67
2022/05/10 11:40:28;;;;;;;5.23;5.00;;;25.80;89.50;;;;;;4975217;28;20476;-67
2022/05/10 11:43:25;;;;;;;4.80;4.70;;;25.80;89.10;;;;;;4972285;28;20508;-68
2022/05/10 11:46:20;;;;;;;5.20;4.90;;;25.70;90.00;;;;;;4968838;28;20867;-68
2022/05/10 11:49:11;;;;;;;5.30;5.10;;;25.70;90.00;;;;;;4958909;28;20854;-68
2022/05/10 11:52:12;;;;;;;5.83;5.43;;;25.70;90.10;;;;;;4973862;28;20839;-68
2022/05/10 11:54:56;;;;;;;6.43;5.83;;;25.90;90.50;;;;;;4933498;28;20482;-68
2022/05/10 11:57:25;;;;;;;5.83;5.13;;;26.00;90.50;;;;;;4975147;28;20538;-68
2022/05/10 11:59:52;;;;;;;5.53;5.23;;;26.10;90.60;;;;;;4974734;28;20517;-68
2022/05/10 12:02:45;;;;;;;5.37;4.63;;;26.40;90.10;;;;;;4975155;28;20464;-68
2022/05/10 12:05:28;;;;;;;6.00;5.70;;;26.50;88.70;;;;;;4974726;28;20867;-68
2022/05/10 12:07:57;;;;;;;5.13;4.87;;;26.40;88.50;;;;;;4974481;28;20991;-68
2022/05/10 12:10:36;;;;;;;5.80;5.50;;;26.60;89.60;;;;;;4974206;28;20459;-68
2022/05/10 12:13:09;;;;;;;4.90;4.70;;;26.60;86.40;;;;;;4974784;28;20495;-68
2022/05/10 12:21:52;;;;;;;5.97;5.70;;;26.30;86.80;;;;;;4974069;28;20498;-67
2022/05/10 12:24:37;;;;;;;4.83;4.63;;;26.20;87.00;;;;;;4974209;28;20463;-68
2022/05/10 12:27:34;;;;;;;4.97;4.77;;;26.20;84.40;;;;;;4974601;28;20548;-69
2022/05/10 12:30:09;;;;;;;5.47;5.07;;;26.30;85.50;;;;;;4973785;28;20459;-68
2022/05/10 12:32:44;;;;;;;5.90;5.60;;;26.40;85.50;;;;;;4974281;28;20530;-68
2022/05/10 12:35:13;;;;;;;5.30;5.00;;;26.40;85.50;;;;;;4974345;28;20487;-67
2022/05/10 12:38:00;;;;;;;5.63;5.30;;;26.50;85.70;;;;;;4973362;28;20467;-67
2022/05/10 12:40:57;;;;;;;4.30;4.20;;;26.50;85.80;;;;;;4973870;28;20474;-68
2022/05/10 12:43:53;;;;;;;4.53;4.43;;;26.50;83.30;;;;;;4973963;28;20511;-69
2022/05/10 12:46:30;;;;;;;5.00;4.80;;;26.50;83.60;;;;;;4972988;28;20488;-68
2022/05/10 12:49:13;;;;;;;5.67;5.17;;;26.60;82.40;;;;;;4974374;28;20467;-68
2022/05/10 12:51:45;;;;;;;5.20;4.90;;;26.70;82.90;;;;;;4972936;28;20485;-68
2022/05/10 12:54:15;;;;;;;4.50;4.40;;;26.70;82.00;;;;;;4973553;28;20468;-68
2022/05/10 12:57:00;;;;;;;5.10;4.57;;;26.60;80.70;;;;;;4974235;28;20480;-68
2022/05/10 12:59:30;;;;;;;4.63;4.43;;;26.60;81.10;;;;;;4973673;28;20533;-68
2022/05/10 13:01:59;;;;;;;4.73;4.43;;;26.70;82.30;;;;;;4973267;28;20472;-68
2022/05/10 13:04:30;;;;;;;6.57;5.20;;;26.90;81.50;;;;;;4973540;28;20530;-69
2022/05/10 13:07:01;;;;;;;5.33;5.13;;;27.10;81.20;;;;;;4971247;28;20471;-68
2022/05/10 13:09:33;;;;;;;5.03;4.77;;;27.10;81.50;;;;;;4973291;28;20466;-68
2022/05/10 13:12:06;;;;;;;5.23;4.60;;;27.00;79.80;;;;;;4973583;28;20518;-68
2022/05/10 13:14:37;;;;;;;4.77;4.47;;;27.20;80.10;;;;;;4973528;28;20476;-68
2022/05/10 13:17:06;;;;;;;5.50;5.13;;;27.20;80.00;;;;;;4973526;28;20463;-67
2022/05/10 13:19:40;;;;;;;5.40;5.10;;;27.40;79.70;;;;;;4973123;28;20546;-67
2022/05/10 13:22:10;;;;;;;5.20;5.00;;;27.40;78.20;;;;;;4973145;28;20472;-68
2022/05/10 13:24:37;;;;;;;4.97;4.63;;;27.10;76.40;;;;;;4973337;28;20497;-67
2022/05/10 13:27:05;;;;;;;4.83;4.63;;;26.90;76.80;;;;;;4973410;28;20464;-67
2022/05/10 13:29:41;;;;;;;4.50;4.37;;;26.90;77.30;;;;;;4972999;28;20484;-67
2022/05/10 13:32:12;;;;;;;5.00;4.80;;;26.80;76.40;;;;;;4973331;28;20572;-67
2022/05/10 13:34:51;;;;;;;5.33;5.13;;;26.80;76.90;;;;;;4973420;28;20480;-68
2022/05/10 13:37:24;;;;;;;5.53;5.00;;;26.80;77.30;;;;;;4973141;28;20477;-68
2022/05/10 13:39:50;;;;;;;5.37;5.17;;;26.90;78.10;;;;;;4972583;28;20563;-68
2022/05/10 13:42:19;;;;;;;5.40;5.00;;;26.80;78.30;;;;;;4972940;28;20457;-68
2022/05/10 13:44:46;;;;;;;5.37;5.00;;;26.80;78.70;;;;;;4967121;28;20982;-67
2022/05/10 13:47:27;;;;;;;5.70;5.33;;;26.80;78.80;;;;;;4972990;28;20512;-68
2022/05/10 13:49:54;;;;;;;5.40;5.10;;;26.90;79.30;;;;;;4972445;28;20463;-68
2022/05/10 13:52:29;;;;;;;5.37;5.10;;;26.90;79.70;;;;;;4972630;28;20493;-68
2022/05/10 13:54:58;;;;;;;5.73;5.00;;;26.90;78.70;;;;;;4973139;28;20496;-68
2022/05/10 13:57:27;;;;;;;6.03;5.53;;;27.00;80.00;;;;;;4973149;28;20843;-69
2022/05/10 13:59:56;;;;;;;5.83;5.63;;;27.00;78.70;;;;;;4972714;28;20466;-68
2022/05/10 14:02:26;;;;;;;5.37;5.00;;;26.90;78.90;;;;;;4972598;28;21020;-68
2022/05/10 14:04:55;;;;;;;6.23;5.93;;;26.80;78.70;;;;;;4972670;28;20489;-67
2022/05/10 14:07:25;;;;;;;5.43;5.03;;;26.80;77.70;;;;;;4972342;28;20473;-68
2022/05/10 14:09:54;;;;;;;5.30;5.10;;;26.80;78.60;;;;;;4972187;28;20565;-67
2022/05/10 14:12:27;;;;;;;5.73;5.53;;;26.60;78.40;;;;;;4972470;28;20583;-67
2022/05/10 14:14:57;;;;;;;5.50;5.30;;;26.50;78.50;;;;;;4972454;28;20562;-66
2022/05/10 14:17:25;;;;;;;5.60;5.40;;;26.30;78.80;;;;;;4968579;28;20464;-67
2022/05/10 14:19:54;;;;;;;5.60;5.20;;;26.00;79.30;;;;;;4971821;28;20905;-67
2022/05/10 14:22:23;;;;;;;6.80;6.20;;;26.00;79.50;;;;;;4972089;28;20463;-67
2022/05/10 14:24:50;;;;;;;5.50;5.10;;;26.00;79.10;;;;;;4971882;28;21051;-67
2022/05/10 14:27:20;;;;;;;5.73;5.33;;;26.00;78.80;;;;;;4972580;28;20526;-67
2022/05/10 14:29:49;;;;;;;4.97;4.77;;;25.90;78.90;;;;;;4971597;28;20463;-67
2022/05/10 14:32:32;;;;;;;6.33;5.23;;;26.00;78.60;;;;;;4972097;28;20464;-67
2022/05/10 14:35:02;;;;;;;5.60;5.10;;;26.00;79.10;;;;;;4972219;28;20478;-67
2022/05/10 14:37:39;;;;;;;5.67;5.57;;;26.00;79.30;;;;;;4971560;28;20467;-68
2022/05/10 14:40:22;;;;;;;5.60;5.30;;;26.00;79.00;;;;;;4971621;28;20486;-67
2022/05/10 14:43:00;;;;;;;5.97;5.77;;;26.10;79.00;;;;;;4972147;28;20465;-68
2022/05/10 14:45:40;;;;;;;5.97;5.47;;;26.00;79.40;;;;;;4971964;28;20491;-67
2022/05/10 14:48:45;;;;;;;5.70;5.50;;;26.10;79.80;;;;;;4971655;28;20467;-67
2022/05/10 14:51:34;;;;;;;5.83;5.57;;;26.30;80.80;;;;;;4892573;29;20578;-67
2022/05/10 14:54:01;;;;;;;5.80;5.60;;;26.40;80.70;;;;;;4969056;28;20487;-67
2022/05/10 14:56:30;;;;;;;5.83;5.47;;;26.20;79.20;;;;;;4972113;28;20547;-68
2022/05/10 14:59:16;;;;;;;6.90;6.70;;;26.10;80.50;;;;;;4971795;28;20551;-66
2022/05/10 15:01:43;;;;;;;5.40;5.20;;;25.90;80.50;;;;;;4971120;28;20576;-67
2022/05/10 15:04:14;;;;;;;6.13;5.93;;;25.60;81.50;;;;;;4971906;28;20518;-67
2022/05/10 15:06:43;;;;;;;6.87;6.57;;;25.50;81.60;;;;;;4964067;28;20568;-66
2022/05/10 15:09:09;;;;;;;5.93;5.53;;;25.40;82.60;;;;;;4970452;28;20976;-66
2022/05/10 15:13:02;;;;;;;6.47;6.17;;;25.40;82.90;;;;;;4970922;28;20471;-67
2022/05/10 15:14:27;;;;;;;6.77;6.37;;;25.40;83.80;;;;;;4971405;28;20860;-67
2022/05/10 15:16:54;;;;;;;6.00;5.53;;;25.30;82.40;;;;;;4971515;28;20475;-67
2022/05/10 15:19:22;;;;;;;6.17;5.87;;;25.40;83.00;;;;;;4971832;28;20468;-67
2022/05/10 15:21:50;;;;;;;6.13;5.93;;;25.30;83.30;;;;;;4970650;28;20852;-69
2022/05/10 15:24:17;;;;;;;6.10;5.90;;;25.30;82.90;;;;;;4970948;28;20804;-67
2022/05/10 15:26:48;;;;;;;6.43;6.03;;;25.30;83.50;;;;;;4972032;28;20759;-67
2022/05/10 15:29:19;;;;;;;6.17;5.83;;;25.30;83.10;;;;;;4971703;28;20470;-67
2022/05/10 15:31:48;;;;;;;7.03;6.53;;;25.20;83.60;;;;;;4971096;28;20471;-68
2022/05/10 15:37:00;;;;;;;5.70;5.50;;;25.10;84.70;;;;;;4971318;28;20983;-67
2022/05/10 15:39:28;;;;;;;6.63;6.33;;;25.00;83.10;;;;;;4971169;28;20471;-67
2022/05/10 15:41:54;;;;;;;5.97;5.63;;;24.90;83.20;;;;;;4970904;28;20555;-68
2022/05/10 15:44:22;;;;;;;5.77;5.47;;;24.90;83.50;;;;;;4965458;28;20476;-67
2022/05/10 15:46:49;;;;;;;5.30;5.20;;;24.90;83.10;;;;;;4971193;28;20459;-68
2022/05/10 15:49:17;;;;;;;5.90;5.60;;;24.70;82.80;;;;;;4971439;28;20591;-68
2022/05/10 15:51:44;;;;;;;5.90;5.50;;;24.70;82.50;;;;;;4970555;28;20463;-67
2022/05/10 15:54:13;;;;;;;6.03;5.20;;;24.70;82.40;;;;;;4970868;28;20840;-69
2022/05/10 15:56:40;;;;;;;5.60;5.40;;;24.70;82.40;;;;;;4971267;28;20514;-68
2022/05/10 15:59:08;;;;;;;5.20;4.90;;;24.70;82.40;;;;;;4971153;28;20463;-67
2022/05/10 16:01:35;;;;;;;5.57;5.27;;;24.70;81.90;;;;;;4970472;28;20468;-68
2022/05/10 16:04:03;;;;;;;5.43;5.20;;;24.80;82.20;;;;;;4971467;28;20474;-67
2022/05/10 16:06:30;;;;;;;4.90;4.70;;;24.80;81.90;;;;;;4971113;28;20837;-67
2022/05/10 16:08:57;;;;;;;9.70;5.30;;;24.80;82.20;;;;;;4970512;28;20464;-68
2022/05/10 16:11:25;;;;;;;4.97;4.77;;;24.80;82.60;;;;;;4970901;28;20895;-66
2022/05/10 16:13:52;;;;;;;4.83;4.63;;;24.90;82.20;;;;;;4970968;28;20907;-67
2022/05/10 16:16:24;;;;;;;5.20;4.80;;;24.80;81.60;;;;;;4967458;28;20874;-67
2022/05/10 16:18:50;;;;;;;5.60;5.30;;;24.70;82.00;;;;;;4971110;28;20456;-67
2022/05/10 16:21:17;;;;;;;5.23;5.03;;;24.70;81.80;;;;;;4972647;28;20468;-69
2022/05/10 16:23:44;;;;;;;5.10;4.93;;;24.70;81.40;;;;;;4973987;28;20467;-67
2022/05/10 16:31:37;;;;;;;4.93;4.83;;;24.60;82.00;;;;;;4973602;28;20458;-68
2022/05/10 16:34:04;;;;;;;5.17;4.97;;;24.60;81.90;;;;;;4974409;28;20502;-69
2022/05/10 16:36:30;;;;;;;4.90;4.67;;;24.60;82.30;;;;;;4974455;28;20827;-69
2022/05/10 16:38:57;;;;;;;6.00;5.60;;;24.60;82.20;;;;;;4973436;28;20578;-68
2022/05/10 16:41:24;;;;;;;4.90;4.70;;;24.60;82.40;;;;;;4973535;28;20472;-69
2022/05/10 16:43:52;;;;;;;6.00;5.33;;;24.50;81.90;;;;;;4974312;28;20518;-68
2022/05/10 16:46:19;;;;;;;6.17;5.80;;;24.50;82.00;;;;;;4974324;28;20491;-68
2022/05/10 16:48:50;;;;;;;5.60;5.23;;;24.50;82.30;;;;;;4974560;28;20851;-69
2022/05/10 16:51:17;;;;;;;5.40;4.73;;;24.40;82.10;;;;;;4973476;28;20949;-69
2022/05/10 16:53:44;;;;;;;6.10;5.70;;;24.40;82.10;;;;;;4972984;28;20571;-68
2022/05/10 16:56:11;;;;;;;5.10;4.70;;;24.30;82.40;;;;;;4974265;28;20491;-68
2022/05/10 16:58:38;;;;;;;5.27;5.07;;;24.20;81.60;;;;;;4973986;28;20468;-68
2022/05/10 17:01:07;;;;;;;4.90;4.60;;;24.20;80.80;;;;;;4973321;28;20464;-68
2022/05/10 17:03:36;;;;;;;5.40;5.20;;;24.10;80.60;;;;;;4973865;28;20460;-67
2022/05/10 17:06:02;;;;;;;6.00;5.60;;;24.10;80.40;;;;;;4972701;28;20486;-68
2022/05/10 17:08:29;;;;;;;4.37;4.10;;;24.00;80.20;;;;;;4972693;28;20995;-68
2022/05/10 17:10:56;;;;;;;4.70;4.50;;;24.00;80.50;;;;;;4973329;28;20953;-67
2022/05/10 17:13:22;;;;;;;4.87;4.47;;;23.90;80.60;;;;;;4973375;28;20849;-69
2022/05/10 17:15:49;;;;;;;5.30;5.10;;;23.90;80.70;;;;;;4973490;28;21039;-68
2022/05/10 17:18:17;;;;;;;4.40;4.27;;;23.80;81.20;;;;;;4973478;28;20515;-68
2022/05/10 17:20:44;;;;;;;5.20;5.00;;;23.70;81.20;;;;;;4973105;28;20467;-68
2022/05/10 17:23:11;;;;;;;4.87;4.67;;;23.70;81.60;;;;;;4972802;28;20472;-67
2022/05/10 17:25:41;;;;;;;6.07;5.57;;;23.60;81.50;;;;;;4973899;28;20483;-69
2022/05/10 17:28:38;;;;;;;5.33;5.13;;;23.60;81.70;;;;;;4973660;28;20529;-68
2022/05/10 17:31:05;;;;;;;5.57;5.17;;;23.50;81.80;;;;;;4972752;28;20474;-68